createdAt,value
2023-04-26T00:04:08.288Z,12.50
2023-04-26T00:12:31.942Z,11.20
2023-04-26T00:20:54.835Z,13.40
2023-04-26T00:29:17.739Z,10.60
2023-04-26T00:37:41.753Z,10.80
2023-04-26T00:46:04.972Z,11.80
2023-04-26T00:54:28.985Z,9.80
2023-04-26T01:02:52.373Z,9.60
2023-04-26T01:11:15.765Z,10.00
2023-04-26T01:19:50.174Z,11.00
2023-04-26T01:28:13.220Z,9.00
2023-04-26T01:36:36.211Z,9.40
2023-04-26T01:44:59.160Z,8.00
2023-04-26T01:53:22.201Z,5.00
2023-04-26T02:01:45.357Z,6.10
2023-04-26T02:10:08.978Z,9.80
2023-04-26T02:18:31.894Z,4.30
2023-04-26T02:26:55.198Z,4.70
2023-04-26T02:35:18.666Z,2.50
2023-04-26T02:43:41.721Z,3.60
2023-04-26T02:52:05.207Z,1.50
2023-04-26T03:00:28.818Z,3.60
2023-04-26T03:08:52.199Z,2.20
2023-04-26T03:17:15.557Z,2.40
2023-04-26T03:25:38.836Z,5.10
2023-04-26T03:34:01.955Z,6.90
2023-04-26T03:42:25.184Z,4.60
2023-04-26T03:50:48.361Z,3.20
2023-04-26T03:59:12.236Z,4.20
2023-04-26T04:07:35.625Z,5.10
2023-04-26T04:15:58.702Z,7.00
2023-04-26T04:24:21.946Z,6.00
2023-04-26T04:32:45.399Z,6.60
2023-04-26T04:41:10.524Z,9.30
2023-04-26T04:49:34.531Z,13.20
2023-04-26T04:57:57.630Z,11.10
2023-04-26T05:06:21.612Z,11.70
2023-04-26T05:14:44.870Z,12.90
2023-04-26T05:23:07.938Z,11.00
2023-04-26T05:31:31.747Z,12.90
2023-04-26T05:40:08.883Z,11.90
2023-04-26T05:48:32.343Z,12.60
2023-04-26T05:56:57.850Z,17.00
2023-04-26T06:05:23.179Z,19.00
2023-04-26T06:13:46.687Z,13.10
2023-04-26T06:22:11.287Z,13.60
2023-04-26T06:30:34.927Z,12.50
2023-04-26T06:38:59.146Z,14.80
2023-04-26T06:47:22.545Z,14.50
2023-04-26T06:55:46.189Z,9.90
2023-04-26T07:04:10.922Z,17.90
2023-04-26T07:12:34.384Z,10.80
2023-04-26T07:20:57.701Z,11.60
2023-04-26T07:29:20.823Z,12.10
2023-04-26T07:37:45.033Z,12.70
2023-04-26T07:46:08.357Z,16.30
2023-04-26T07:54:31.903Z,10.30
2023-04-26T08:02:55.278Z,10.80
2023-04-26T08:11:18.536Z,11.90
2023-04-26T08:19:41.595Z,11.70
2023-04-26T08:28:05.208Z,9.10
2023-04-26T08:36:28.173Z,8.50
2023-04-26T08:44:53.248Z,8.50
2023-04-26T08:53:20.173Z,13.20
2023-04-26T09:01:44.968Z,8.90
2023-04-26T09:10:09.766Z,11.00
2023-04-26T09:18:34.281Z,6.60
2023-04-26T09:27:03.815Z,5.30
2023-04-26T09:35:41.120Z,9.20
2023-04-26T09:44:04.130Z,10.70
2023-04-26T09:52:29.330Z,5.10
2023-04-26T10:00:53.269Z,6.90
2023-04-26T10:09:16.270Z,4.30
2023-04-26T10:17:39.407Z,9.00
2023-04-26T10:26:02.360Z,8.40
2023-04-26T10:34:25.363Z,5.20
2023-04-26T10:42:48.384Z,7.10
2023-04-26T10:51:12.738Z,5.00
2023-04-26T10:59:47.132Z,8.30
2023-04-26T11:08:19.425Z,7.20
2023-04-26T11:16:42.531Z,7.20
2023-04-26T11:25:06.482Z,6.30
2023-04-26T11:33:29.550Z,10.60
2023-04-26T11:41:57.198Z,15.60
2023-04-26T11:50:24.046Z,4.60
2023-04-26T11:58:49.199Z,6.80
2023-04-26T12:07:12.123Z,5.30
2023-04-26T12:15:35.107Z,6.50
2023-04-26T12:23:58.103Z,9.10
2023-04-26T12:32:22.560Z,11.70
2023-04-26T12:40:47.030Z,10.00
2023-04-26T12:49:10.179Z,10.60
2023-04-26T12:57:33.223Z,8.20
2023-04-26T13:05:56.240Z,4.80
2023-04-26T13:14:19.234Z,18.40
2023-04-26T13:22:43.492Z,9.30
2023-04-26T13:31:06.970Z,16.40
2023-04-26T13:39:31.271Z,12.00
2023-04-26T13:47:54.266Z,5.80
2023-04-26T13:56:17.967Z,10.60
2023-04-26T14:04:41.729Z,9.20
2023-04-26T14:13:04.852Z,9.80
2023-04-26T14:21:28.091Z,15.30
2023-04-26T14:29:51.028Z,13.10
2023-04-26T14:38:14.250Z,9.30
2023-04-26T14:46:37.778Z,10.90
2023-04-26T14:55:00.820Z,7.60
2023-04-26T15:03:24.000Z,9.10
2023-04-26T15:11:47.160Z,14.00
2023-04-26T15:20:10.703Z,13.60
2023-04-26T15:28:33.917Z,16.00
2023-04-26T15:37:02.420Z,14.70
2023-04-26T15:45:25.372Z,14.50
2023-04-26T15:53:50.734Z,12.00
2023-04-26T16:02:13.688Z,10.60
2023-04-26T16:10:38.511Z,9.60
2023-04-26T16:19:01.605Z,18.90
2023-04-26T16:27:24.650Z,17.10
2023-04-26T16:35:52.845Z,12.60
2023-04-26T16:44:16.868Z,14.70
2023-04-26T16:52:40.291Z,16.80
2023-04-26T17:01:03.297Z,21.60
2023-04-26T17:09:26.858Z,22.10
2023-04-26T17:17:50.932Z,17.50
2023-04-26T17:26:13.978Z,17.40
2023-04-26T17:34:38.935Z,17.60
2023-04-26T17:43:02.016Z,19.50
2023-04-26T17:51:25.049Z,11.80
2023-04-26T17:59:47.981Z,23.80
2023-04-26T18:08:11.428Z,19.90
2023-04-26T18:16:34.430Z,29.20
2023-04-26T18:24:57.903Z,37.10
2023-04-26T18:33:20.948Z,61.10
2023-04-26T18:41:44.318Z,48.80
2023-04-26T18:50:08.237Z,58.60
2023-04-26T18:58:31.526Z,18.30
2023-04-26T19:06:54.484Z,38.40
2023-04-26T19:15:17.724Z,30.80
2023-04-26T19:23:41.128Z,20.60
2023-04-26T19:32:07.046Z,15.60
2023-04-26T19:40:30.438Z,16.10
2023-04-26T19:48:53.806Z,16.30
2023-04-26T19:57:16.713Z,13.40
2023-04-26T20:05:39.802Z,15.50
2023-04-26T20:14:02.924Z,35.70
2023-04-26T20:22:25.895Z,30.80
2023-04-26T20:30:48.890Z,23.70
2023-04-26T20:39:12.196Z,25.10
2023-04-26T20:47:37.269Z,22.10
2023-04-26T20:56:00.765Z,19.80
2023-04-26T21:04:24.060Z,18.20
2023-04-26T21:12:47.417Z,20.00
2023-04-26T21:21:11.323Z,17.60
2023-04-26T21:29:34.653Z,18.70
2023-04-26T21:37:57.527Z,17.50
2023-04-26T21:46:20.567Z,20.90
2023-04-26T21:54:43.948Z,21.80
2023-04-26T22:03:07.148Z,20.10
2023-04-26T22:11:30.230Z,15.00
2023-04-26T22:19:55.625Z,21.50
2023-04-26T22:28:19.371Z,14.40
2023-04-26T22:36:42.418Z,15.90
2023-04-26T22:45:07.207Z,13.50
2023-04-26T22:53:30.652Z,13.00
2023-04-26T23:01:53.520Z,12.20
2023-04-26T23:10:16.845Z,12.80
2023-04-26T23:18:42.208Z,18.70
2023-04-26T23:27:05.136Z,20.30
2023-04-26T23:35:28.700Z,19.80
2023-04-26T23:43:51.889Z,21.30
2023-04-26T23:52:15.093Z,22.20
